sensor_id;sensor_type;location;lat;lon;timestamp;P1;durP1;ratioP1;P2;durP2;ratioP2
15110;SDS011;7656;51.954;7.998;2023-12-20T00:00:00;3.60;;;2.77;;
15110;SDS011;7656;51.954;7.998;2023-12-20T00:04:21;4.20;;;3.10;;
15110;SDS011;7656;51.954;7.998;2023-12-20T00:08:43;4.37;;;3.00;;
15110;SDS011;7656;51.954;7.998;2023-12-20T00:13:04;4.50;;;2.47;;
15110;SDS011;7656;51.954;7.998;2023-12-20T00:17:27;4.03;;;2.77;;
15110;SDS011;7656;51.954;7.998;2023-12-20T00:21:49;3.80;;;2.50;;
15110;SDS011;7656;51.954;7.998;2023-12-20T00:26:10;2.57;;;2.13;;
15110;SDS011;7656;51.954;7.998;2023-12-20T00:30:32;7.13;;;2.40;;
15110;SDS011;7656;51.954;7.998;2023-12-20T00:34:54;5.33;;;2.03;;
15110;SDS011;7656;51.954;7.998;2023-12-20T00:39:15;3.40;;;2.00;;
15110;SDS011;7656;51.954;7.998;2023-12-20T00:43:36;2.57;;;1.27;;
15110;SDS011;7656;51.954;7.998;2023-12-20T00:47:58;5.57;;;1.90;;
15110;SDS011;7656;51.954;7.998;2023-12-20T00:52:20;4.73;;;2.00;;
15110;SDS011;7656;51.954;7.998;2023-12-20T00:56:43;6.23;;;1.90;;
15110;SDS011;7656;51.954;7.998;2023-12-20T01:01:04;7.87;;;2.93;;
15110;SDS011;7656;51.954;7.998;2023-12-20T01:05:26;6.43;;;2.50;;
15110;SDS011;7656;51.954;7.998;2023-12-20T01:09:47;2.87;;;1.97;;
15110;SDS011;7656;51.954;7.998;2023-12-20T01:14:09;4.43;;;1.93;;
15110;SDS011;7656;51.954;7.998;2023-12-20T01:18:30;4.73;;;2.10;;
15110;SDS011;7656;51.954;7.998;2023-12-20T01:22:52;4.57;;;1.87;;
15110;SDS011;7656;51.954;7.998;2023-12-20T01:27:13;3.87;;;1.70;;
15110;SDS011;7656;51.954;7.998;2023-12-20T01:31:35;2.50;;;1.80;;
15110;SDS011;7656;51.954;7.998;2023-12-20T01:35:57;2.67;;;2.20;;
15110;SDS011;7656;51.954;7.998;2023-12-20T01:40:19;7.07;;;1.90;;
15110;SDS011;7656;51.954;7.998;2023-12-20T01:44:40;5.10;;;2.17;;
15110;SDS011;7656;51.954;7.998;2023-12-20T01:49:02;4.73;;;2.00;;
15110;SDS011;7656;51.954;7.998;2023-12-20T01:53:23;4.47;;;1.80;;
15110;SDS011;7656;51.954;7.998;2023-12-20T01:57:46;4.77;;;1.80;;
15110;SDS011;7656;51.954;7.998;2023-12-20T02:02:08;5.67;;;1.73;;
15110;SDS011;7656;51.954;7.998;2023-12-20T02:06:30;4.93;;;2.17;;
15110;SDS011;7656;51.954;7.998;2023-12-20T02:10:51;5.53;;;2.00;;
15110;SDS011;7656;51.954;7.998;2023-12-20T02:15:13;3.33;;;2.30;;
15110;SDS011;7656;51.954;7.998;2023-12-20T02:19:35;6.57;;;2.37;;
15110;SDS011;7656;51.954;7.998;2023-12-20T02:23:57;5.50;;;2.27;;
15110;SDS011;7656;51.954;7.998;2023-12-20T02:28:18;7.77;;;3.33;;
15110;SDS011;7656;51.954;7.998;2023-12-20T02:32:40;4.90;;;3.00;;
15110;SDS011;7656;51.954;7.998;2023-12-20T02:37:01;10.13;;;3.27;;
15110;SDS011;7656;51.954;7.998;2023-12-20T02:41:23;4.53;;;2.93;;
15110;SDS011;7656;51.954;7.998;2023-12-20T02:45:44;5.93;;;3.23;;
15110;SDS011;7656;51.954;7.998;2023-12-20T02:50:06;5.00;;;2.97;;
15110;SDS011;7656;51.954;7.998;2023-12-20T02:54:28;6.53;;;3.40;;
15110;SDS011;7656;51.954;7.998;2023-12-20T02:58:49;5.83;;;3.53;;
15110;SDS011;7656;51.954;7.998;2023-12-20T03:03:11;5.57;;;3.10;;
15110;SDS011;7656;51.954;7.998;2023-12-20T03:07:32;9.50;;;2.77;;
15110;SDS011;7656;51.954;7.998;2023-12-20T03:11:53;10.17;;;3.20;;
15110;SDS011;7656;51.954;7.998;2023-12-20T03:16:15;9.53;;;3.37;;
15110;SDS011;7656;51.954;7.998;2023-12-20T03:20:37;7.00;;;3.10;;
15110;SDS011;7656;51.954;7.998;2023-12-20T03:24:58;5.57;;;3.17;;
15110;SDS011;7656;51.954;7.998;2023-12-20T03:29:20;6.67;;;3.33;;
15110;SDS011;7656;51.954;7.998;2023-12-20T03:33:41;5.17;;;2.87;;
15110;SDS011;7656;51.954;7.998;2023-12-20T03:38:03;6.97;;;2.90;;
15110;SDS011;7656;51.954;7.998;2023-12-20T03:42:24;5.83;;;3.20;;
15110;SDS011;7656;51.954;7.998;2023-12-20T03:46:46;5.07;;;2.70;;
15110;SDS011;7656;51.954;7.998;2023-12-20T03:51:09;5.37;;;2.30;;
15110;SDS011;7656;51.954;7.998;2023-12-20T03:55:31;5.50;;;3.07;;
15110;SDS011;7656;51.954;7.998;2023-12-20T03:59:52;8.40;;;3.10;;
15110;SDS011;7656;51.954;7.998;2023-12-20T04:04:14;6.87;;;2.77;;
15110;SDS011;7656;51.954;7.998;2023-12-20T04:08:35;8.07;;;2.97;;
15110;SDS011;7656;51.954;7.998;2023-12-20T04:12:57;8.77;;;3.07;;
15110;SDS011;7656;51.954;7.998;2023-12-20T04:17:18;8.47;;;3.10;;
15110;SDS011;7656;51.954;7.998;2023-12-20T04:21:40;6.33;;;2.50;;
15110;SDS011;7656;51.954;7.998;2023-12-20T04:26:01;5.97;;;2.30;;
15110;SDS011;7656;51.954;7.998;2023-12-20T04:30:23;4.57;;;2.20;;
15110;SDS011;7656;51.954;7.998;2023-12-20T04:34:44;9.73;;;3.20;;
15110;SDS011;7656;51.954;7.998;2023-12-20T04:39:06;13.23;;;3.67;;
15110;SDS011;7656;51.954;7.998;2023-12-20T04:43:27;13.80;;;3.17;;
15110;SDS011;7656;51.954;7.998;2023-12-20T04:47:51;8.50;;;2.80;;
15110;SDS011;7656;51.954;7.998;2023-12-20T04:52:12;11.73;;;3.33;;
15110;SDS011;7656;51.954;7.998;2023-12-20T04:56:35;15.63;;;3.77;;
15110;SDS011;7656;51.954;7.998;2023-12-20T05:00:56;7.63;;;3.13;;
15110;SDS011;7656;51.954;7.998;2023-12-20T05:05:18;7.83;;;2.80;;
15110;SDS011;7656;51.954;7.998;2023-12-20T05:09:39;6.20;;;2.57;;
15110;SDS011;7656;51.954;7.998;2023-12-20T05:14:01;11.13;;;3.40;;
15110;SDS011;7656;51.954;7.998;2023-12-20T05:18:23;7.53;;;3.10;;
15110;SDS011;7656;51.954;7.998;2023-12-20T05:22:44;8.23;;;3.27;;
15110;SDS011;7656;51.954;7.998;2023-12-20T05:27:06;14.37;;;3.60;;
15110;SDS011;7656;51.954;7.998;2023-12-20T05:31:27;12.17;;;3.83;;
15110;SDS011;7656;51.954;7.998;2023-12-20T05:35:49;11.77;;;3.50;;
15110;SDS011;7656;51.954;7.998;2023-12-20T05:40:10;11.17;;;4.40;;
15110;SDS011;7656;51.954;7.998;2023-12-20T05:44:32;11.30;;;3.30;;
15110;SDS011;7656;51.954;7.998;2023-12-20T05:48:54;9.10;;;4.37;;
15110;SDS011;7656;51.954;7.998;2023-12-20T05:53:15;6.20;;;3.17;;
15110;SDS011;7656;51.954;7.998;2023-12-20T05:57:37;10.57;;;3.90;;
15110;SDS011;7656;51.954;7.998;2023-12-20T06:01:58;8.60;;;3.80;;
15110;SDS011;7656;51.954;7.998;2023-12-20T06:06:20;12.83;;;3.93;;
15110;SDS011;7656;51.954;7.998;2023-12-20T06:10:41;10.37;;;4.03;;
15110;SDS011;7656;51.954;7.998;2023-12-20T06:15:03;9.40;;;4.00;;
15110;SDS011;7656;51.954;7.998;2023-12-20T06:19:24;7.53;;;4.30;;
15110;SDS011;7656;51.954;7.998;2023-12-20T06:23:46;12.03;;;3.83;;
15110;SDS011;7656;51.954;7.998;2023-12-20T06:28:07;6.70;;;3.43;;
15110;SDS011;7656;51.954;7.998;2023-12-20T06:32:30;11.30;;;3.93;;
15110;SDS011;7656;51.954;7.998;2023-12-20T06:36:52;9.60;;;3.80;;
15110;SDS011;7656;51.954;7.998;2023-12-20T06:41:13;15.47;;;5.20;;
15110;SDS011;7656;51.954;7.998;2023-12-20T06:45:36;7.77;;;3.40;;
15110;SDS011;7656;51.954;7.998;2023-12-20T06:49:57;5.77;;;3.40;;
15110;SDS011;7656;51.954;7.998;2023-12-20T06:54:19;9.40;;;3.30;;
15110;SDS011;7656;51.954;7.998;2023-12-20T06:58:40;6.80;;;3.30;;
15110;SDS011;7656;51.954;7.998;2023-12-20T07:03:02;13.07;;;3.60;;
15110;SDS011;7656;51.954;7.998;2023-12-20T07:07:24;6.87;;;3.10;;
15110;SDS011;7656;51.954;7.998;2023-12-20T07:11:45;13.23;;;3.77;;
15110;SDS011;7656;51.954;7.998;2023-12-20T07:16:07;7.60;;;3.43;;
15110;SDS011;7656;51.954;7.998;2023-12-20T07:20:28;10.37;;;3.40;;
15110;SDS011;7656;51.954;7.998;2023-12-20T07:24:50;9.90;;;3.77;;
15110;SDS011;7656;51.954;7.998;2023-12-20T07:29:12;7.27;;;3.17;;
15110;SDS011;7656;51.954;7.998;2023-12-20T07:33:34;8.67;;;3.67;;
15110;SDS011;7656;51.954;7.998;2023-12-20T07:37:55;7.50;;;3.40;;
15110;SDS011;7656;51.954;7.998;2023-12-20T07:42:17;10.33;;;3.50;;
15110;SDS011;7656;51.954;7.998;2023-12-20T07:46:39;8.33;;;2.83;;
15110;SDS011;7656;51.954;7.998;2023-12-20T07:51:01;8.70;;;3.50;;
15110;SDS011;7656;51.954;7.998;2023-12-20T07:55:23;10.00;;;4.07;;
15110;SDS011;7656;51.954;7.998;2023-12-20T07:59:45;11.13;;;3.10;;
15110;SDS011;7656;51.954;7.998;2023-12-20T08:04:06;8.43;;;3.17;;
15110;SDS011;7656;51.954;7.998;2023-12-20T08:08:28;11.03;;;4.27;;
15110;SDS011;7656;51.954;7.998;2023-12-20T08:12:49;8.70;;;3.50;;
15110;SDS011;7656;51.954;7.998;2023-12-20T08:17:11;11.73;;;3.80;;
15110;SDS011;7656;51.954;7.998;2023-12-20T08:21:33;12.47;;;3.40;;
15110;SDS011;7656;51.954;7.998;2023-12-20T08:25:54;6.87;;;3.70;;
15110;SDS011;7656;51.954;7.998;2023-12-20T08:30:16;10.03;;;3.67;;
15110;SDS011;7656;51.954;7.998;2023-12-20T08:34:41;9.13;;;3.37;;
15110;SDS011;7656;51.954;7.998;2023-12-20T08:39:02;12.80;;;4.70;;
15110;SDS011;7656;51.954;7.998;2023-12-20T08:43:27;13.23;;;3.83;;
15110;SDS011;7656;51.954;7.998;2023-12-20T08:47:49;8.33;;;3.73;;
15110;SDS011;7656;51.954;7.998;2023-12-20T08:52:10;12.40;;;4.13;;
15110;SDS011;7656;51.954;7.998;2023-12-20T08:56:31;10.10;;;4.03;;
15110;SDS011;7656;51.954;7.998;2023-12-20T09:00:54;9.57;;;3.87;;
15110;SDS011;7656;51.954;7.998;2023-12-20T09:05:15;10.67;;;4.60;;
15110;SDS011;7656;51.954;7.998;2023-12-20T09:09:37;10.50;;;3.93;;
15110;SDS011;7656;51.954;7.998;2023-12-20T09:13:58;15.97;;;4.90;;
15110;SDS011;7656;51.954;7.998;2023-12-20T09:18:20;13.57;;;4.50;;
15110;SDS011;7656;51.954;7.998;2023-12-20T09:22:41;10.93;;;3.93;;
15110;SDS011;7656;51.954;7.998;2023-12-20T09:27:03;13.40;;;3.70;;
15110;SDS011;7656;51.954;7.998;2023-12-20T09:31:25;11.47;;;4.07;;
15110;SDS011;7656;51.954;7.998;2023-12-20T09:35:47;13.17;;;3.83;;
15110;SDS011;7656;51.954;7.998;2023-12-20T09:40:09;8.70;;;3.70;;
15110;SDS011;7656;51.954;7.998;2023-12-20T09:44:33;9.53;;;3.43;;
15110;SDS011;7656;51.954;7.998;2023-12-20T09:48:55;5.93;;;3.53;;
15110;SDS011;7656;51.954;7.998;2023-12-20T09:53:17;13.43;;;4.10;;
15110;SDS011;7656;51.954;7.998;2023-12-20T09:57:40;7.70;;;3.20;;
15110;SDS011;7656;51.954;7.998;2023-12-20T10:02:02;11.60;;;4.67;;
15110;SDS011;7656;51.954;7.998;2023-12-20T10:06:25;7.07;;;3.03;;
15110;SDS011;7656;51.954;7.998;2023-12-20T10:10:46;6.03;;;2.90;;
15110;SDS011;7656;51.954;7.998;2023-12-20T10:15:08;10.80;;;3.60;;
15110;SDS011;7656;51.954;7.998;2023-12-20T10:19:31;8.73;;;2.37;;
15110;SDS011;7656;51.954;7.998;2023-12-20T10:23:56;9.67;;;3.10;;
15110;SDS011;7656;51.954;7.998;2023-12-20T10:28:18;9.30;;;2.73;;
15110;SDS011;7656;51.954;7.998;2023-12-20T10:32:41;9.87;;;3.77;;
15110;SDS011;7656;51.954;7.998;2023-12-20T10:37:03;9.07;;;3.20;;
15110;SDS011;7656;51.954;7.998;2023-12-20T10:41:28;6.33;;;3.00;;
15110;SDS011;7656;51.954;7.998;2023-12-20T10:45:53;7.07;;;2.87;;
15110;SDS011;7656;51.954;7.998;2023-12-20T10:50:14;12.60;;;3.70;;
15110;SDS011;7656;51.954;7.998;2023-12-20T10:54:36;6.40;;;2.33;;
15110;SDS011;7656;51.954;7.998;2023-12-20T10:58:59;6.23;;;2.73;;
15110;SDS011;7656;51.954;7.998;2023-12-20T11:03:24;6.27;;;2.57;;
15110;SDS011;7656;51.954;7.998;2023-12-20T11:08:12;8.90;;;2.60;;
15110;SDS011;7656;51.954;7.998;2023-12-20T11:12:44;10.77;;;2.50;;
15110;SDS011;7656;51.954;7.998;2023-12-20T11:17:09;4.43;;;2.43;;
15110;SDS011;7656;51.954;7.998;2023-12-20T11:21:34;8.53;;;2.87;;
15110;SDS011;7656;51.954;7.998;2023-12-20T11:25:56;10.50;;;2.27;;
15110;SDS011;7656;51.954;7.998;2023-12-20T11:30:19;6.77;;;2.30;;
15110;SDS011;7656;51.954;7.998;2023-12-20T11:34:41;3.90;;;2.17;;
15110;SDS011;7656;51.954;7.998;2023-12-20T11:39:03;8.83;;;2.00;;
15110;SDS011;7656;51.954;7.998;2023-12-20T11:43:29;5.13;;;2.07;;
15110;SDS011;7656;51.954;7.998;2023-12-20T11:47:52;7.23;;;2.07;;
15110;SDS011;7656;51.954;7.998;2023-12-20T11:52:14;6.40;;;2.60;;
15110;SDS011;7656;51.954;7.998;2023-12-20T11:56:36;5.97;;;2.50;;
15110;SDS011;7656;51.954;7.998;2023-12-20T12:00:57;2.10;;;1.70;;
15110;SDS011;7656;51.954;7.998;2023-12-20T12:05:19;10.03;;;4.00;;
15110;SDS011;7656;51.954;7.998;2023-12-20T12:09:41;5.70;;;2.33;;
15110;SDS011;7656;51.954;7.998;2023-12-20T12:14:03;7.83;;;2.90;;
15110;SDS011;7656;51.954;7.998;2023-12-20T12:18:24;4.43;;;2.47;;
15110;SDS011;7656;51.954;7.998;2023-12-20T12:22:46;7.27;;;2.60;;
15110;SDS011;7656;51.954;7.998;2023-12-20T12:27:17;7.03;;;2.40;;
15110;SDS011;7656;51.954;7.998;2023-12-20T12:31:39;6.37;;;2.47;;
15110;SDS011;7656;51.954;7.998;2023-12-20T12:36:01;10.30;;;2.97;;
15110;SDS011;7656;51.954;7.998;2023-12-20T12:40:24;9.17;;;2.43;;
15110;SDS011;7656;51.954;7.998;2023-12-20T12:44:46;8.77;;;2.67;;
15110;SDS011;7656;51.954;7.998;2023-12-20T12:49:07;7.23;;;2.20;;
15110;SDS011;7656;51.954;7.998;2023-12-20T12:53:29;6.37;;;2.40;;
15110;SDS011;7656;51.954;7.998;2023-12-20T12:57:50;14.80;;;2.87;;
15110;SDS011;7656;51.954;7.998;2023-12-20T13:02:12;8.10;;;2.40;;
15110;SDS011;7656;51.954;7.998;2023-12-20T13:06:34;6.63;;;2.27;;
15110;SDS011;7656;51.954;7.998;2023-12-20T13:10:55;4.20;;;2.17;;
15110;SDS011;7656;51.954;7.998;2023-12-20T13:15:20;6.77;;;3.00;;
15110;SDS011;7656;51.954;7.998;2023-12-20T13:19:42;4.90;;;2.63;;
15110;SDS011;7656;51.954;7.998;2023-12-20T13:24:04;2.10;;;0.67;;
15110;SDS011;7656;51.954;7.998;2023-12-20T13:28:25;2.37;;;0.73;;
15110;SDS011;7656;51.954;7.998;2023-12-20T13:32:47;2.23;;;0.67;;
15110;SDS011;7656;51.954;7.998;2023-12-20T13:37:09;1.13;;;0.40;;
15110;SDS011;7656;51.954;7.998;2023-12-20T13:41:31;2.20;;;0.83;;
15110;SDS011;7656;51.954;7.998;2023-12-20T13:45:52;0.70;;;0.70;;
15110;SDS011;7656;51.954;7.998;2023-12-20T13:50:14;1.30;;;0.60;;
15110;SDS011;7656;51.954;7.998;2023-12-20T13:54:35;1.63;;;0.80;;
15110;SDS011;7656;51.954;7.998;2023-12-20T13:58:58;3.70;;;1.77;;
15110;SDS011;7656;51.954;7.998;2023-12-20T14:03:20;1.87;;;1.27;;
15110;SDS011;7656;51.954;7.998;2023-12-20T14:07:41;1.77;;;1.27;;
15110;SDS011;7656;51.954;7.998;2023-12-20T14:12:05;2.10;;;0.83;;
15110;SDS011;7656;51.954;7.998;2023-12-20T14:16:29;3.03;;;1.00;;
15110;SDS011;7656;51.954;7.998;2023-12-20T14:20:50;2.50;;;1.27;;
15110;SDS011;7656;51.954;7.998;2023-12-20T14:25:13;1.50;;;0.80;;
15110;SDS011;7656;51.954;7.998;2023-12-20T14:29:35;2.83;;;1.23;;
15110;SDS011;7656;51.954;7.998;2023-12-20T14:33:58;1.53;;;1.20;;
15110;SDS011;7656;51.954;7.998;2023-12-20T14:38:20;2.67;;;1.33;;
15110;SDS011;7656;51.954;7.998;2023-12-20T14:42:44;2.40;;;1.20;;
15110;SDS011;7656;51.954;7.998;2023-12-20T14:47:06;7.23;;;1.63;;
15110;SDS011;7656;51.954;7.998;2023-12-20T14:51:28;3.43;;;1.67;;
15110;SDS011;7656;51.954;7.998;2023-12-20T14:55:49;4.80;;;1.97;;
15110;SDS011;7656;51.954;7.998;2023-12-20T15:00:11;8.60;;;2.33;;
15110;SDS011;7656;51.954;7.998;2023-12-20T15:04:36;10.47;;;3.07;;
15110;SDS011;7656;51.954;7.998;2023-12-20T15:08:58;7.40;;;2.90;;
15110;SDS011;7656;51.954;7.998;2023-12-20T15:13:20;6.30;;;2.60;;
15110;SDS011;7656;51.954;7.998;2023-12-20T15:17:42;5.07;;;2.73;;
15110;SDS011;7656;51.954;7.998;2023-12-20T15:22:03;6.90;;;2.40;;
15110;SDS011;7656;51.954;7.998;2023-12-20T15:26:25;8.37;;;3.30;;
15110;SDS011;7656;51.954;7.998;2023-12-20T15:30:49;6.27;;;3.00;;
15110;SDS011;7656;51.954;7.998;2023-12-20T15:35:10;7.57;;;3.20;;
15110;SDS011;7656;51.954;7.998;2023-12-20T15:39:32;5.00;;;3.20;;
15110;SDS011;7656;51.954;7.998;2023-12-20T15:43:53;5.97;;;3.47;;
15110;SDS011;7656;51.954;7.998;2023-12-20T15:48:15;4.30;;;3.20;;
15110;SDS011;7656;51.954;7.998;2023-12-20T15:52:40;5.50;;;2.87;;
15110;SDS011;7656;51.954;7.998;2023-12-20T15:57:03;6.20;;;3.20;;
15110;SDS011;7656;51.954;7.998;2023-12-20T16:01:25;6.97;;;3.37;;
15110;SDS011;7656;51.954;7.998;2023-12-20T16:05:47;9.83;;;4.03;;
15110;SDS011;7656;51.954;7.998;2023-12-20T16:10:08;6.80;;;3.80;;
15110;SDS011;7656;51.954;7.998;2023-12-20T16:14:30;13.57;;;4.40;;
15110;SDS011;7656;51.954;7.998;2023-12-20T16:18:51;5.87;;;3.80;;
15110;SDS011;7656;51.954;7.998;2023-12-20T16:23:13;9.37;;;4.63;;
15110;SDS011;7656;51.954;7.998;2023-12-20T16:27:34;9.30;;;4.80;;
15110;SDS011;7656;51.954;7.998;2023-12-20T16:31:56;9.80;;;4.73;;
15110;SDS011;7656;51.954;7.998;2023-12-20T16:36:17;8.60;;;4.23;;
15110;SDS011;7656;51.954;7.998;2023-12-20T16:40:39;15.13;;;5.00;;
15110;SDS011;7656;51.954;7.998;2023-12-20T16:45:00;10.17;;;4.77;;
15110;SDS011;7656;51.954;7.998;2023-12-20T16:49:23;11.57;;;4.83;;
15110;SDS011;7656;51.954;7.998;2023-12-20T16:53:44;10.53;;;4.20;;
15110;SDS011;7656;51.954;7.998;2023-12-20T16:58:06;7.53;;;4.63;;
15110;SDS011;7656;51.954;7.998;2023-12-20T17:02:28;12.63;;;4.70;;
15110;SDS011;7656;51.954;7.998;2023-12-20T17:06:50;6.13;;;4.43;;
15110;SDS011;7656;51.954;7.998;2023-12-20T17:11:12;12.03;;;5.27;;
15110;SDS011;7656;51.954;7.998;2023-12-20T17:15:34;8.53;;;5.27;;
15110;SDS011;7656;51.954;7.998;2023-12-20T17:19:55;9.97;;;5.13;;
15110;SDS011;7656;51.954;7.998;2023-12-20T17:24:17;13.80;;;6.10;;
15110;SDS011;7656;51.954;7.998;2023-12-20T17:28:39;11.60;;;6.13;;
15110;SDS011;7656;51.954;7.998;2023-12-20T17:33:01;8.40;;;4.97;;
15110;SDS011;7656;51.954;7.998;2023-12-20T17:37:24;10.17;;;5.20;;
15110;SDS011;7656;51.954;7.998;2023-12-20T17:41:46;15.07;;;5.97;;
15110;SDS011;7656;51.954;7.998;2023-12-20T17:46:07;14.70;;;6.93;;
15110;SDS011;7656;51.954;7.998;2023-12-20T17:50:29;19.50;;;6.73;;
15110;SDS011;7656;51.954;7.998;2023-12-20T17:54:51;13.73;;;5.63;;
15110;SDS011;7656;51.954;7.998;2023-12-20T17:59:12;11.73;;;5.70;;
15110;SDS011;7656;51.954;7.998;2023-12-20T18:03:34;9.60;;;5.70;;
15110;SDS011;7656;51.954;7.998;2023-12-20T18:07:55;12.23;;;6.50;;
15110;SDS011;7656;51.954;7.998;2023-12-20T18:12:17;7.17;;;4.90;;
15110;SDS011;7656;51.954;7.998;2023-12-20T18:16:38;11.07;;;5.33;;
15110;SDS011;7656;51.954;7.998;2023-12-20T18:21:00;14.27;;;6.10;;
15110;SDS011;7656;51.954;7.998;2023-12-20T18:25:22;11.17;;;5.80;;
15110;SDS011;7656;51.954;7.998;2023-12-20T18:29:44;9.83;;;5.43;;
15110;SDS011;7656;51.954;7.998;2023-12-20T18:34:05;12.07;;;6.30;;
15110;SDS011;7656;51.954;7.998;2023-12-20T18:38:27;9.33;;;5.67;;
15110;SDS011;7656;51.954;7.998;2023-12-20T18:42:50;13.90;;;6.63;;
15110;SDS011;7656;51.954;7.998;2023-12-20T18:47:12;12.33;;;6.40;;
15110;SDS011;7656;51.954;7.998;2023-12-20T18:51:33;13.53;;;6.10;;
15110;SDS011;7656;51.954;7.998;2023-12-20T18:55:55;12.57;;;6.87;;
15110;SDS011;7656;51.954;7.998;2023-12-20T19:00:16;11.97;;;5.77;;
15110;SDS011;7656;51.954;7.998;2023-12-20T19:04:38;8.93;;;6.70;;
15110;SDS011;7656;51.954;7.998;2023-12-20T19:08:59;11.73;;;6.53;;
15110;SDS011;7656;51.954;7.998;2023-12-20T19:13:24;13.03;;;6.53;;
15110;SDS011;7656;51.954;7.998;2023-12-20T19:17:51;9.10;;;6.13;;
15110;SDS011;7656;51.954;7.998;2023-12-20T19:22:12;15.97;;;6.50;;
15110;SDS011;7656;51.954;7.998;2023-12-20T19:26:35;8.57;;;6.40;;
15110;SDS011;7656;51.954;7.998;2023-12-20T19:30:58;11.63;;;6.20;;
15110;SDS011;7656;51.954;7.998;2023-12-20T19:35:21;11.33;;;6.77;;
15110;SDS011;7656;51.954;7.998;2023-12-20T19:39:43;15.17;;;6.60;;
15110;SDS011;7656;51.954;7.998;2023-12-20T19:44:05;12.23;;;7.07;;
15110;SDS011;7656;51.954;7.998;2023-12-20T19:48:27;14.80;;;7.60;;
15110;SDS011;7656;51.954;7.998;2023-12-20T19:52:49;13.70;;;7.47;;
15110;SDS011;7656;51.954;7.998;2023-12-20T19:57:10;11.47;;;7.70;;
15110;SDS011;7656;51.954;7.998;2023-12-20T20:01:32;10.40;;;6.83;;
15110;SDS011;7656;51.954;7.998;2023-12-20T20:05:56;13.50;;;8.43;;
15110;SDS011;7656;51.954;7.998;2023-12-20T20:10:18;11.60;;;7.60;;
15110;SDS011;7656;51.954;7.998;2023-12-20T20:14:40;8.83;;;6.60;;
15110;SDS011;7656;51.954;7.998;2023-12-20T20:19:01;11.23;;;7.00;;
15110;SDS011;7656;51.954;7.998;2023-12-20T20:23:23;9.73;;;6.50;;
15110;SDS011;7656;51.954;7.998;2023-12-20T20:27:44;8.90;;;7.10;;
15110;SDS011;7656;51.954;7.998;2023-12-20T20:32:06;8.50;;;6.73;;
15110;SDS011;7656;51.954;7.998;2023-12-20T20:36:28;9.80;;;7.03;;
15110;SDS011;7656;51.954;7.998;2023-12-20T20:40:49;10.13;;;6.53;;
15110;SDS011;7656;51.954;7.998;2023-12-20T20:45:13;7.97;;;5.87;;
15110;SDS011;7656;51.954;7.998;2023-12-20T20:49:35;8.87;;;6.80;;
15110;SDS011;7656;51.954;7.998;2023-12-20T20:53:57;8.60;;;6.27;;
15110;SDS011;7656;51.954;7.998;2023-12-20T20:58:18;6.53;;;5.17;;
15110;SDS011;7656;51.954;7.998;2023-12-20T21:02:40;7.47;;;5.30;;
15110;SDS011;7656;51.954;7.998;2023-12-20T21:07:02;9.00;;;5.67;;
15110;SDS011;7656;51.954;7.998;2023-12-20T21:11:23;5.80;;;4.40;;
15110;SDS011;7656;51.954;7.998;2023-12-20T21:15:45;5.17;;;4.63;;
15110;SDS011;7656;51.954;7.998;2023-12-20T21:20:06;5.83;;;4.90;;
15110;SDS011;7656;51.954;7.998;2023-12-20T21:24:28;5.33;;;4.80;;
15110;SDS011;7656;51.954;7.998;2023-12-20T21:28:50;5.50;;;3.87;;
15110;SDS011;7656;51.954;7.998;2023-12-20T21:33:11;5.03;;;4.17;;
15110;SDS011;7656;51.954;7.998;2023-12-20T21:37:33;5.07;;;3.93;;
15110;SDS011;7656;51.954;7.998;2023-12-20T21:41:55;5.63;;;4.23;;
15110;SDS011;7656;51.954;7.998;2023-12-20T21:46:19;5.47;;;4.00;;
15110;SDS011;7656;51.954;7.998;2023-12-20T21:50:41;7.60;;;4.20;;
15110;SDS011;7656;51.954;7.998;2023-12-20T21:55:07;5.60;;;4.10;;
15110;SDS011;7656;51.954;7.998;2023-12-20T21:59:31;6.77;;;4.23;;
15110;SDS011;7656;51.954;7.998;2023-12-20T22:03:55;6.40;;;4.37;;
15110;SDS011;7656;51.954;7.998;2023-12-20T22:08:18;4.57;;;4.03;;
15110;SDS011;7656;51.954;7.998;2023-12-20T22:12:39;7.77;;;4.37;;
15110;SDS011;7656;51.954;7.998;2023-12-20T22:17:04;4.30;;;3.87;;
15110;SDS011;7656;51.954;7.998;2023-12-20T22:21:28;5.47;;;4.50;;
15110;SDS011;7656;51.954;7.998;2023-12-20T22:25:52;4.47;;;3.93;;
15110;SDS011;7656;51.954;7.998;2023-12-20T22:30:16;5.77;;;4.77;;
15110;SDS011;7656;51.954;7.998;2023-12-20T22:34:40;5.07;;;4.07;;
15110;SDS011;7656;51.954;7.998;2023-12-20T22:39:03;4.17;;;3.73;;
15110;SDS011;7656;51.954;7.998;2023-12-20T22:43:24;4.00;;;3.60;;
15110;SDS011;7656;51.954;7.998;2023-12-20T22:47:47;4.17;;;3.77;;
15110;SDS011;7656;51.954;7.998;2023-12-20T22:52:09;4.53;;;3.73;;
15110;SDS011;7656;51.954;7.998;2023-12-20T22:56:39;4.77;;;3.57;;
15110;SDS011;7656;51.954;7.998;2023-12-20T23:01:06;4.57;;;4.13;;
15110;SDS011;7656;51.954;7.998;2023-12-20T23:05:33;4.37;;;3.43;;
15110;SDS011;7656;51.954;7.998;2023-12-20T23:09:58;4.83;;;3.97;;
15110;SDS011;7656;51.954;7.998;2023-12-20T23:14:20;5.37;;;3.30;;
15110;SDS011;7656;51.954;7.998;2023-12-20T23:18:44;4.10;;;3.37;;
15110;SDS011;7656;51.954;7.998;2023-12-20T23:23:06;4.87;;;3.47;;
15110;SDS011;7656;51.954;7.998;2023-12-20T23:27:31;3.20;;;2.90;;
15110;SDS011;7656;51.954;7.998;2023-12-20T23:31:53;3.67;;;3.23;;
15110;SDS011;7656;51.954;7.998;2023-12-20T23:36:18;3.23;;;2.87;;
15110;SDS011;7656;51.954;7.998;2023-12-20T23:40:44;3.37;;;3.07;;
15110;SDS011;7656;51.954;7.998;2023-12-20T23:45:09;3.13;;;2.80;;
15110;SDS011;7656;51.954;7.998;2023-12-20T23:49:33;3.00;;;2.70;;
15110;SDS011;7656;51.954;7.998;2023-12-20T23:53:55;3.27;;;2.97;;
15110;SDS011;7656;51.954;7.998;2023-12-20T23:58:18;2.63;;;2.43;;
